Crystal Falls, MI (49920)

12:19 AM CST on January 17, 2017 (GMT -0600)
Bates Tower | | Change Station

Elev 1765 ft 46.10 °N, 88.54 °W | Updated 5 minutes ago

Mostly Cloudy
Mostly Cloudy
27.1 °F
Feels Like 22 °F
N
4.0
Wind Variable Wind from East
Gusts 6.0 mph

Today
High -- | Low -- °F
--% Chance of Precip.
Yesterday
High -- | Low -- °F
Precip. -- in
Pressure 30.05 in
Visibility 7.0 miles
Clouds Clear
Windchill 22 °F
Dew Point 19 °F
Humidity 71%
Rainfall 0.00 in
Snow Depth Not available.
7:30 AM 4:37 PM
Waning Gibbous, 75% visible
METAR KIMT 170554Z AUTO 00000KT 7SM CLR M07/M10 A2999 RMK AO2 SLP174 T10721100 11028 21072 400331117 56019
Pressure 30.05 in
Visibility 7.0 miles
Clouds Clear
Windchill 22 °F
Dew Point 19 °F
Humidity 71%
Rainfall 0.00 in
Snow Depth Not available.
7:30 AM 4:37 PM
Waning Gibbous, 75% visible
METAR KIMT 170554Z AUTO 00000KT 7SM CLR M07/M10 A2999 RMK AO2 SLP174 T10721100 11028 21072 400331117 56019

Get Your Daily Forecast Email!

Thanks for signing up!

Be on the lookout for a verification email in your inbox.

You'll start receiving the daily forecast at 8 AM.

×

10-Day Weather Forecast

Almanac

Astronomy

Jan. 17, 2017 Rise Set
Actual Time
Civil Twilight
Nautical Twilight
Astronomical Twilight
Moon
Length of Visible Light
Length of Day
Tomorrow will be .
, % of the Moon is Illuminated

Today's Extremes

State Highs State Lows

Community

WunderPhotos

Upload Photos

1,962,540 photos uploaded!

WunderBlog® & News

Nearby

Air Quality

  Air Quality AQ Index Pollutant
Not available.

Snow Depth

Station Depth Elevation

Earthquake Activity

City Distance Mag. Time & Date
Minimum magnitude displayed is 2.5.

Coastal Water Temperatures

Place Temperature

Stations

Nearby Weather Stations

Station Location Temp. Windchill Dew Point Humidity Wind Precip. Elev Updated Type
                   

Watches & Warnings

There are currently no watches in effect.